Time;durP1;ratioP1;P1;durP2;ratioP2;P2;SDS_P1;SDS_P2;PMS_P1;PMS_P2;Temp;Humidity;BMP_temperature;BMP_pressure;BME280_temperature;BME280_humidity;BME280_pressure;Samples;Min_cycle;Max_cycle;Signal;HPM_P1;HPM_P2
2021/08/14 00:01:37;;;;;;;10.57;9.43;;;24.40;99.90;;;;;;5073361;28;20271;-63
2021/08/14 00:04:03;;;;;;;10.27;9.27;;;24.40;99.90;;;;;;5076961;28;20194;-63
2021/08/14 00:06:29;;;;;;;10.77;9.68;;;24.40;99.90;;;;;;5077771;28;20626;-62
2021/08/14 00:08:54;;;;;;;12.30;11.10;;;24.40;99.90;;;;;;5076869;28;20186;-63
2021/08/14 00:11:20;;;;;;;13.27;12.07;;;24.30;99.90;;;;;;5076824;28;20179;-63
2021/08/14 00:13:45;;;;;;;13.55;12.20;;;24.20;99.90;;;;;;5077213;28;20240;-62
2021/08/14 00:16:11;;;;;;;12.65;11.45;;;24.20;99.90;;;;;;5077363;28;20576;-63
2021/08/14 00:18:37;;;;;;;13.90;12.60;;;24.20;99.90;;;;;;5077408;28;20179;-63
2021/08/14 00:21:03;;;;;;;13.95;12.50;;;24.20;99.90;;;;;;5077062;28;20259;-63
2021/08/14 00:23:29;;;;;;;13.55;12.35;;;24.20;99.90;;;;;;5077207;28;20691;-62
2021/08/14 00:25:57;;;;;;;13.55;12.30;;;24.20;99.90;;;;;;5076701;28;20167;-63
2021/08/14 00:28:23;;;;;;;14.45;13.05;;;24.10;99.90;;;;;;5076916;28;20166;-62
2021/08/14 00:30:48;;;;;;;14.10;12.85;;;24.10;99.90;;;;;;5076958;28;20185;-62
2021/08/14 00:33:14;;;;;;;14.25;12.85;;;24.00;99.90;;;;;;5076337;28;20542;-63
2021/08/14 00:35:39;;;;;;;13.93;12.52;;;24.10;99.90;;;;;;5076591;28;20662;-63
2021/08/14 00:38:05;;;;;;;14.57;13.15;;;24.00;99.90;;;;;;5077132;28;20171;-63
2021/08/14 00:40:30;;;;;;;13.05;11.88;;;24.00;99.90;;;;;;5076335;28;20175;-63
2021/08/14 00:42:56;;;;;;;13.70;12.50;;;24.00;99.90;;;;;;5076467;28;20183;-62
2021/08/14 00:45:21;;;;;;;14.38;12.98;;;24.00;99.90;;;;;;5076829;28;20167;-63
2021/08/14 00:47:47;;;;;;;13.30;12.10;;;24.00;99.90;;;;;;5076431;28;20178;-62
2021/08/14 00:50:13;;;;;;;13.80;12.50;;;23.90;99.90;;;;;;5077153;28;20651;-63
2021/08/14 00:52:39;;;;;;;14.73;12.52;;;23.90;99.90;;;;;;5076223;28;20174;-63
2021/08/14 00:55:05;;;;;;;13.07;11.88;;;23.90;99.90;;;;;;5076478;28;20193;-63
2021/08/14 00:57:30;;;;;;;13.75;12.35;;;23.90;99.90;;;;;;5077136;28;20205;-62
2021/08/14 00:59:56;;;;;;;12.77;11.60;;;23.90;99.90;;;;;;5074828;28;20198;-61
2021/08/14 01:02:21;;;;;;;14.40;11.75;;;23.90;99.90;;;;;;5075767;28;20194;-63
2021/08/14 01:04:50;;;;;;;13.32;12.13;;;23.90;99.90;;;;;;5075913;28;20278;-63
2021/08/14 01:07:18;;;;;;;13.52;12.18;;;23.90;99.90;;;;;;5076269;28;20243;-63
2021/08/14 01:09:45;;;;;;;13.70;12.30;;;23.90;99.90;;;;;;5075932;28;20186;-63
2021/08/14 01:12:14;;;;;;;13.50;11.88;;;23.70;99.90;;;;;;5076170;28;20175;-63
2021/08/14 01:14:41;;;;;;;15.00;13.80;;;23.60;99.90;;;;;;5075508;28;20222;-63
2021/08/14 01:17:06;;;;;;;15.82;14.35;;;23.60;99.90;;;;;;5075861;28;20258;-63
2021/08/14 01:19:32;;;;;;;15.27;13.60;;;23.70;99.90;;;;;;5075800;28;20646;-63
2021/08/14 01:21:58;;;;;;;13.48;12.25;;;23.60;99.90;;;;;;5076003;28;20248;-62
2021/08/14 01:24:24;;;;;;;14.10;12.50;;;23.60;99.90;;;;;;5075983;28;20535;-63
2021/08/14 01:26:49;;;;;;;14.48;13.10;;;23.60;99.90;;;;;;5075823;28;20614;-63
2021/08/14 01:29:15;;;;;;;13.30;12.10;;;23.50;99.90;;;;;;5075748;28;20256;-63
2021/08/14 01:31:44;;;;;;;13.48;12.13;;;23.50;99.90;;;;;;5075867;28;20180;-63
2021/08/14 01:34:10;;;;;;;13.63;12.32;;;23.50;99.90;;;;;;5075554;28;20281;-63
2021/08/14 01:36:35;;;;;;;15.32;13.85;;;23.50;99.90;;;;;;5075889;28;20217;-63
2021/08/14 01:39:04;;;;;;;13.63;12.45;;;23.50;99.90;;;;;;5075462;28;20182;-61
2021/08/14 01:41:30;;;;;;;14.15;12.75;;;23.40;99.90;;;;;;5075268;28;20198;-62
2021/08/14 01:43:55;;;;;;;14.60;13.25;;;23.40;99.90;;;;;;5075537;28;20673;-63
2021/08/14 01:46:23;;;;;;;16.83;15.23;;;23.30;99.90;;;;;;5075351;28;20176;-63
2021/08/14 01:48:48;;;;;;;16.52;14.93;;;23.30;99.90;;;;;;5075824;28;20550;-62
2021/08/14 01:51:14;;;;;;;16.60;15.00;;;23.30;99.90;;;;;;5075104;28;20196;-63
2021/08/14 01:53:48;;;;;;;17.33;15.50;;;23.30;99.90;;;;;;5075509;28;20201;-62
2021/08/14 01:56:14;;;;;;;17.10;15.40;;;23.40;99.90;;;;;;5075303;28;20189;-63
2021/08/14 01:58:40;;;;;;;17.02;15.23;;;23.30;99.90;;;;;;5075470;28;20519;-62
2021/08/14 02:01:05;;;;;;;16.20;14.52;;;23.30;99.90;;;;;;5074939;28;20704;-63
2021/08/14 02:03:31;;;;;;;16.38;13.93;;;23.30;99.90;;;;;;5075137;28;20737;-63
2021/08/14 02:05:56;;;;;;;17.58;14.60;;;23.40;99.90;;;;;;5075038;28;20166;-63
2021/08/14 02:08:22;;;;;;;14.65;13.15;;;23.40;99.90;;;;;;5074852;28;20224;-63
2021/08/14 02:10:47;;;;;;;15.02;13.43;;;23.40;99.90;;;;;;5074791;28;20163;-62
2021/08/14 02:13:13;;;;;;;14.93;13.57;;;23.30;99.90;;;;;;5075123;28;20217;-63
2021/08/14 02:15:38;;;;;;;15.52;14.02;;;23.30;99.90;;;;;;5074640;28;20175;-63
2021/08/14 02:18:04;;;;;;;16.52;13.68;;;23.40;99.90;;;;;;5074662;28;20185;-63
2021/08/14 02:20:29;;;;;;;15.10;13.50;;;23.40;99.90;;;;;;5074526;28;20201;-61
2021/08/14 02:22:55;;;;;;;15.05;13.65;;;23.40;99.90;;;;;;5074606;28;20194;-61
2021/08/14 02:25:20;;;;;;;15.00;13.43;;;23.40;99.90;;;;;;5074431;28;20519;-63
2021/08/14 02:27:46;;;;;;;15.10;13.70;;;23.30;99.90;;;;;;5074634;28;20634;-63
2021/08/14 02:30:12;;;;;;;14.05;12.68;;;23.30;99.90;;;;;;5075137;28;20180;-63
2021/08/14 02:32:38;;;;;;;14.07;12.77;;;23.30;99.90;;;;;;5074423;28;20170;-63
2021/08/14 02:35:04;;;;;;;15.63;13.85;;;23.30;99.90;;;;;;5074760;28;20192;-63
2021/08/14 02:37:30;;;;;;;14.23;12.88;;;23.20;99.90;;;;;;5074595;28;20178;-60
2021/08/14 02:39:55;;;;;;;14.80;13.50;;;23.20;99.90;;;;;;5074206;28;20226;-62
2021/08/14 02:42:21;;;;;;;14.43;13.05;;;23.20;99.90;;;;;;5074261;28;20228;-63
2021/08/14 02:44:46;;;;;;;14.73;13.27;;;23.20;99.90;;;;;;5074672;28;20190;-61
2021/08/14 02:47:12;;;;;;;14.40;12.90;;;23.10;99.90;;;;;;5074185;28;20175;-61
2021/08/14 02:49:37;;;;;;;14.15;12.85;;;23.10;99.90;;;;;;5074462;28;20204;-63
2021/08/14 02:52:03;;;;;;;14.45;13.05;;;23.10;99.90;;;;;;5074180;28;20181;-63
2021/08/14 02:54:28;;;;;;;14.55;13.15;;;23.10;99.90;;;;;;5074331;28;20203;-61
2021/08/14 02:56:54;;;;;;;16.00;14.50;;;23.00;99.90;;;;;;5074052;28;20648;-63
2021/08/14 02:59:19;;;;;;;14.80;13.43;;;22.70;99.90;;;;;;5074560;28;20635;-64
2021/08/14 03:01:45;;;;;;;15.68;13.18;;;22.80;99.90;;;;;;5073946;28;20677;-62
2021/08/14 03:04:10;;;;;;;16.13;14.52;;;22.70;99.90;;;;;;5073923;28;20196;-63
2021/08/14 03:06:36;;;;;;;14.73;13.43;;;22.80;99.90;;;;;;5073987;28;20229;-63
2021/08/14 03:09:03;;;;;;;14.60;13.25;;;22.80;99.90;;;;;;5073810;28;20272;-62
2021/08/14 03:11:29;;;;;;;14.75;13.45;;;22.80;99.90;;;;;;5074223;28;20180;-61
2021/08/14 03:13:54;;;;;;;15.23;13.82;;;22.80;99.90;;;;;;5074041;28;20284;-63
2021/08/14 03:16:20;;;;;;;15.73;14.00;;;22.70;99.90;;;;;;5074462;28;20201;-62
2021/08/14 03:18:45;;;;;;;15.38;13.85;;;22.70;99.90;;;;;;5073808;28;20259;-63
2021/08/14 03:21:11;;;;;;;15.57;13.98;;;22.70;99.90;;;;;;5073690;28;20206;-63
2021/08/14 03:23:36;;;;;;;18.23;14.60;;;22.70;99.90;;;;;;5074091;28;20634;-61
2021/08/14 03:26:02;;;;;;;17.02;15.40;;;22.70;99.90;;;;;;5073636;28;20177;-62
2021/08/14 03:28:27;;;;;;;16.38;14.73;;;22.70;99.90;;;;;;5074190;28;20172;-63
2021/08/14 03:30:53;;;;;;;15.73;14.20;;;22.70;99.90;;;;;;5074212;28;20630;-63
2021/08/14 03:33:18;;;;;;;17.00;14.80;;;22.70;99.90;;;;;;5073518;28;20236;-62
2021/08/14 03:35:44;;;;;;;14.98;13.68;;;22.70;99.90;;;;;;5073678;28;20235;-61
2021/08/14 03:38:09;;;;;;;14.63;13.23;;;22.70;99.90;;;;;;5073450;28;20662;-61
2021/08/14 03:40:35;;;;;;;15.30;13.90;;;22.70;99.90;;;;;;5073724;28;20567;-63
2021/08/14 03:43:00;;;;;;;14.98;13.18;;;22.70;99.90;;;;;;5073192;28;20539;-63
2021/08/14 03:45:26;;;;;;;15.20;13.68;;;22.80;99.90;;;;;;5073972;28;20248;-63
2021/08/14 03:47:51;;;;;;;16.70;14.77;;;22.80;99.90;;;;;;5073569;28;20172;-63
2021/08/14 03:50:17;;;;;;;15.63;14.13;;;22.80;99.90;;;;;;5073455;28;20173;-63
2021/08/14 03:52:42;;;;;;;15.68;14.13;;;22.80;99.90;;;;;;5073100;28;20175;-62
2021/08/14 03:55:09;;;;;;;15.35;13.80;;;22.70;99.90;;;;;;5073748;28;20201;-62
2021/08/14 03:57:34;;;;;;;15.93;14.43;;;22.70;99.90;;;;;;5073524;28;20184;-63
2021/08/14 04:00:00;;;;;;;16.27;14.82;;;22.70;99.90;;;;;;5073632;28;20257;-63
2021/08/14 04:02:26;;;;;;;15.13;13.73;;;22.70;99.90;;;;;;5073203;28;20295;-63
2021/08/14 04:04:52;;;;;;;15.00;13.52;;;22.70;99.90;;;;;;5073400;28;20191;-63
2021/08/14 04:07:18;;;;;;;14.98;13.57;;;22.60;99.90;;;;;;5073465;28;20176;-63
2021/08/14 04:09:43;;;;;;;14.98;13.50;;;22.60;99.90;;;;;;5073347;28;20624;-63
2021/08/14 04:12:09;;;;;;;16.02;14.38;;;22.60;99.90;;;;;;5073443;28;20203;-63
2021/08/14 04:14:36;;;;;;;16.65;14.20;;;22.70;99.90;;;;;;5073761;28;20205;-62
2021/08/14 04:17:01;;;;;;;64.25;16.73;;;22.50;99.90;;;;;;5073842;28;20176;-61
2021/08/14 04:19:27;;;;;;;296.05;26.70;;;22.10;99.90;;;;;;5073312;28;20187;-63
2021/08/14 04:21:52;;;;;;;19.02;13.52;;;21.70;99.90;;;;;;5073020;28;20204;-61
2021/08/14 04:24:18;;;;;;;20.33;13.10;;;21.60;99.90;;;;;;5072186;28;20530;-63
2021/08/14 04:26:44;;;;;;;14.95;13.50;;;21.60;99.90;;;;;;5073558;28;20163;-61
2021/08/14 04:29:09;;;;;;;13.15;12.05;;;21.80;99.90;;;;;;5073702;28;20173;-61
2021/08/14 04:31:35;;;;;;;12.85;11.80;;;21.90;99.90;;;;;;5072978;28;20619;-62
2021/08/14 04:34:01;;;;;;;12.85;11.75;;;22.00;99.90;;;;;;5073347;28;20191;-63
2021/08/14 04:36:26;;;;;;;12.68;11.50;;;22.10;99.90;;;;;;5073393;28;20182;-62
2021/08/14 04:38:52;;;;;;;12.07;11.07;;;22.20;99.90;;;;;;5073324;28;20224;-63
2021/08/14 04:41:17;;;;;;;12.88;11.77;;;22.40;99.90;;;;;;5072708;28;20199;-63
2021/08/14 04:43:43;;;;;;;12.57;11.38;;;22.50;99.90;;;;;;5072849;28;20197;-63
2021/08/14 04:46:09;;;;;;;14.00;12.60;;;22.60;99.90;;;;;;5072983;28;20564;-63
2021/08/14 04:48:34;;;;;;;12.30;11.20;;;22.60;99.90;;;;;;5073389;28;20170;-62
2021/08/14 04:51:00;;;;;;;12.35;11.00;;;22.70;99.90;;;;;;5076532;28;20183;-63
2021/08/14 04:53:25;;;;;;;11.27;10.20;;;22.70;99.90;;;;;;5076593;28;20209;-62
2021/08/14 04:55:51;;;;;;;12.10;11.05;;;22.80;99.90;;;;;;5076191;28;20178;-61
2021/08/14 04:58:16;;;;;;;11.85;10.75;;;22.90;99.90;;;;;;5076915;28;20181;-63
2021/08/14 05:00:42;;;;;;;11.75;10.57;;;23.00;99.90;;;;;;5076043;28;20185;-63
2021/08/14 05:03:07;;;;;;;10.93;9.93;;;23.10;99.90;;;;;;5075886;28;20269;-62
2021/08/14 05:05:33;;;;;;;12.05;9.98;;;23.10;99.90;;;;;;5076579;28;20288;-63
2021/08/14 05:07:58;;;;;;;12.63;11.45;;;23.30;99.90;;;;;;5076171;28;20174;-63
2021/08/14 05:10:24;;;;;;;13.13;11.93;;;23.20;99.90;;;;;;5075778;28;20213;-63
2021/08/14 05:12:49;;;;;;;13.85;12.48;;;23.30;99.90;;;;;;5075959;28;20170;-62
2021/08/14 05:15:15;;;;;;;15.30;13.73;;;23.30;99.90;;;;;;5076231;28;20178;-63
2021/08/14 05:17:40;;;;;;;14.65;13.15;;;23.40;99.90;;;;;;5076512;28;20175;-62
2021/08/14 05:20:06;;;;;;;14.40;12.98;;;23.30;99.90;;;;;;5076355;28;20592;-63
2021/08/14 05:22:32;;;;;;;15.27;13.95;;;23.40;99.90;;;;;;5075514;28;20232;-61
2021/08/14 05:24:58;;;;;;;15.43;13.85;;;23.40;99.90;;;;;;5075701;28;20678;-62
2021/08/14 05:27:23;;;;;;;15.15;13.75;;;23.40;99.90;;;;;;5075612;28;20534;-61
2021/08/14 05:29:49;;;;;;;15.93;14.40;;;23.40;99.90;;;;;;5076425;28;20170;-63
2021/08/14 05:32:14;;;;;;;14.88;13.50;;;23.50;99.90;;;;;;5075723;28;20627;-64
2021/08/14 05:34:40;;;;;;;15.57;14.13;;;23.50;99.90;;;;;;5075791;28;20194;-63
2021/08/14 05:37:05;;;;;;;14.85;13.38;;;23.40;99.90;;;;;;5075556;28;20649;-63
2021/08/14 05:39:31;;;;;;;14.18;12.68;;;23.50;99.90;;;;;;5075891;28;20182;-63
2021/08/14 05:41:57;;;;;;;14.32;12.93;;;23.50;99.90;;;;;;5075050;28;20561;-61
2021/08/14 05:44:22;;;;;;;14.90;13.25;;;23.50;99.90;;;;;;5075576;28;20265;-61
2021/08/14 05:46:48;;;;;;;14.45;13.05;;;23.50;99.90;;;;;;5075704;28;20213;-62
2021/08/14 05:49:14;;;;;;;14.23;12.82;;;23.40;99.90;;;;;;5076221;28;20241;-62
2021/08/14 05:51:41;;;;;;;13.57;12.27;;;23.40;99.90;;;;;;5075264;28;20179;-63
2021/08/14 05:54:06;;;;;;;14.85;13.30;;;23.40;99.90;;;;;;5075123;28;20267;-62
2021/08/14 05:56:32;;;;;;;16.00;14.60;;;23.40;99.90;;;;;;5075031;28;20202;-63
2021/08/14 05:58:57;;;;;;;15.20;13.80;;;23.40;99.90;;;;;;5075231;28;20614;-63
2021/08/14 06:01:23;;;;;;;14.88;13.45;;;23.30;99.90;;;;;;5074683;28;20248;-63
2021/08/14 06:03:48;;;;;;;17.13;14.30;;;23.40;99.90;;;;;;5075373;28;20194;-64
2021/08/14 06:06:14;;;;;;;15.02;13.60;;;23.40;99.90;;;;;;5075295;28;20552;-62
2021/08/14 06:08:39;;;;;;;17.42;15.63;;;23.40;99.90;;;;;;5074930;28;20205;-62
2021/08/14 06:11:05;;;;;;;15.32;13.77;;;23.20;99.90;;;;;;5074708;28;20178;-61
2021/08/14 06:13:31;;;;;;;17.50;15.95;;;23.10;99.90;;;;;;5074919;28;20237;-61
2021/08/14 06:15:56;;;;;;;18.38;16.67;;;23.30;99.90;;;;;;5074748;28;20602;-61
2021/08/14 06:18:22;;;;;;;18.45;16.63;;;23.50;99.90;;;;;;5074958;28;20552;-62
2021/08/14 06:20:47;;;;;;;18.33;15.82;;;23.50;99.90;;;;;;5074971;28;20202;-61
2021/08/14 06:23:13;;;;;;;43.33;20.83;;;23.60;99.90;;;;;;5074460;28;20187;-64
2021/08/14 06:25:38;;;;;;;18.92;17.13;;;23.50;99.90;;;;;;5075041;28;20201;-63
2021/08/14 06:28:04;;;;;;;32.85;18.38;;;23.30;99.90;;;;;;5074436;28;20163;-61
2021/08/14 06:30:29;;;;;;;17.30;15.65;;;23.40;99.90;;;;;;5074377;28;20175;-63
2021/08/14 06:32:55;;;;;;;25.08;19.80;;;23.50;99.90;;;;;;5074432;28;20186;-64
2021/08/14 06:35:21;;;;;;;22.17;17.85;;;23.60;99.90;;;;;;5074672;28;20167;-63
2021/08/14 06:37:46;;;;;;;18.00;16.40;;;23.50;99.90;;;;;;5074362;28;20178;-62
2021/08/14 06:40:13;;;;;;;17.25;15.73;;;23.60;99.90;;;;;;5074894;28;20174;-61
2021/08/14 06:42:39;;;;;;;18.88;17.25;;;23.70;99.90;;;;;;5073885;28;20202;-62
2021/08/14 06:45:07;;;;;;;20.83;18.40;;;23.70;99.90;;;;;;5074067;28;20273;-63
2021/08/14 06:47:32;;;;;;;22.65;17.85;;;23.70;99.90;;;;;;5074704;28;20178;-60
2021/08/14 06:49:58;;;;;;;17.42;15.85;;;23.80;99.90;;;;;;5074116;28;20171;-62
2021/08/14 06:52:24;;;;;;;21.60;19.60;;;23.80;99.90;;;;;;5074146;28;20244;-59
2021/08/14 06:54:50;;;;;;;26.90;23.60;;;23.90;99.90;;;;;;5073966;28;20198;-64
2021/08/14 06:57:15;;;;;;;22.55;20.35;;;23.80;99.90;;;;;;5074080;28;20167;-64
2021/08/14 06:59:41;;;;;;;21.13;19.23;;;23.70;99.90;;;;;;5074210;28;20185;-64
2021/08/14 07:02:08;;;;;;;21.95;19.90;;;23.80;99.90;;;;;;5074038;28;20531;-63
2021/08/14 07:04:34;;;;;;;23.35;21.25;;;23.80;99.90;;;;;;5074517;28;20194;-63
2021/08/14 07:06:59;;;;;;;23.95;21.73;;;23.80;99.90;;;;;;5073951;28;20530;-61
2021/08/14 07:09:25;;;;;;;24.00;21.58;;;23.90;99.90;;;;;;5073703;28;20638;-63
2021/08/14 07:11:51;;;;;;;25.48;23.13;;;24.00;99.90;;;;;;5073345;28;20649;-64
2021/08/14 07:14:16;;;;;;;27.50;24.75;;;24.10;99.90;;;;;;5074086;28;20240;-63
2021/08/14 07:16:42;;;;;;;25.10;22.50;;;24.20;99.90;;;;;;5074103;28;20209;-63
2021/08/14 07:19:07;;;;;;;26.73;24.30;;;24.10;99.90;;;;;;5062150;28;20175;-63
2021/08/14 07:21:33;;;;;;;23.15;21.00;;;24.10;99.90;;;;;;5068929;28;20203;-63
2021/08/14 07:23:58;;;;;;;23.00;20.90;;;24.00;99.90;;;;;;5053669;28;20198;-61
2021/08/14 07:26:24;;;;;;;23.00;20.95;;;24.20;99.90;;;;;;5053484;28;20178;-64
2021/08/14 07:28:49;;;;;;;22.08;19.95;;;24.30;99.90;;;;;;5053771;28;20225;-61
2021/08/14 07:31:15;;;;;;;23.05;21.02;;;24.20;99.90;;;;;;5053527;28;20181;-62
2021/08/14 07:33:41;;;;;;;24.67;22.45;;;24.30;99.90;;;;;;5053597;28;20278;-63
2021/08/14 07:36:08;;;;;;;22.38;20.30;;;24.30;99.90;;;;;;5054228;28;20175;-64
2021/08/14 07:38:34;;;;;;;23.20;20.90;;;24.20;99.90;;;;;;5054043;28;20179;-63
2021/08/14 07:40:59;;;;;;;23.27;21.02;;;24.10;99.90;;;;;;5053315;28;20191;-64
2021/08/14 07:43:25;;;;;;;24.60;22.20;;;24.00;99.90;;;;;;5053065;28;20207;-64
2021/08/14 07:45:51;;;;;;;21.40;19.33;;;24.10;99.90;;;;;;5053490;28;20167;-64
2021/08/14 07:48:16;;;;;;;21.25;19.17;;;24.10;99.90;;;;;;5053462;28;20240;-61
2021/08/14 07:50:42;;;;;;;19.38;17.48;;;24.40;99.90;;;;;;5053647;28;20171;-63
2021/08/14 07:53:07;;;;;;;16.60;15.00;;;24.40;99.90;;;;;;5070100;28;20202;-61
2021/08/14 07:55:33;;;;;;;18.27;16.52;;;24.60;99.90;;;;;;5073256;28;20174;-60
2021/08/14 07:57:59;;;;;;;19.95;17.85;;;24.60;99.90;;;;;;5073627;28;20175;-63
2021/08/14 08:00:26;;;;;;;16.88;15.27;;;24.70;99.90;;;;;;5073800;28;20189;-64
2021/08/14 08:02:52;;;;;;;16.45;14.75;;;25.00;99.90;;;;;;5073685;28;20645;-64
2021/08/14 08:05:18;;;;;;;15.60;13.95;;;25.20;99.90;;;;;;5072982;28;20191;-64
2021/08/14 08:07:44;;;;;;;15.32;13.93;;;25.50;99.90;;;;;;5072064;28;20166;-62
2021/08/14 08:10:16;;;;;;;14.43;13.07;;;25.90;99.90;;;;;;5073381;28;20240;-64
2021/08/14 08:12:41;;;;;;;13.30;12.00;;;26.10;99.90;;;;;;5073125;28;20170;-63
2021/08/14 08:15:08;;;;;;;16.13;13.70;;;26.60;99.90;;;;;;5073432;28;20171;-62
2021/08/14 08:17:34;;;;;;;15.00;13.45;;;26.70;99.90;;;;;;5073465;28;20568;-64
2021/08/14 08:20:01;;;;;;;14.95;13.27;;;26.80;99.90;;;;;;5073172;28;20661;-64
2021/08/14 08:22:27;;;;;;;13.88;12.45;;;26.70;99.90;;;;;;5072951;28;20241;-63
2021/08/14 08:24:52;;;;;;;14.55;13.15;;;27.00;99.90;;;;;;5076822;28;20226;-64
2021/08/14 08:27:18;;;;;;;12.90;11.60;;;27.10;99.90;;;;;;5076886;28;20166;-62
2021/08/14 08:29:43;;;;;;;12.20;11.10;;;27.20;99.90;;;;;;5076783;28;20174;-63
2021/08/14 08:32:09;;;;;;;12.82;11.57;;;27.40;99.90;;;;;;5076863;28;20175;-63
2021/08/14 08:34:35;;;;;;;15.73;12.88;;;27.60;99.90;;;;;;5076752;28;20656;-64
2021/08/14 08:37:01;;;;;;;12.75;10.95;;;27.50;99.90;;;;;;5076487;28;20542;-64
2021/08/14 08:39:28;;;;;;;15.15;11.95;;;27.50;99.90;;;;;;5076532;28;20645;-64
2021/08/14 08:41:56;;;;;;;12.60;11.30;;;27.50;99.90;;;;;;5076489;28;20209;-62
2021/08/14 08:44:22;;;;;;;12.73;11.30;;;27.70;99.90;;;;;;5076543;28;20669;-64
2021/08/14 08:46:48;;;;;;;15.68;13.93;;;27.90;99.90;;;;;;5076655;28;20178;-65
2021/08/14 08:49:16;;;;;;;15.43;13.65;;;28.00;99.90;;;;;;5076978;28;20220;-64
2021/08/14 08:51:42;;;;;;;12.95;11.65;;;27.90;99.90;;;;;;5076730;28;20178;-63
2021/08/14 08:54:10;;;;;;;14.35;12.95;;;27.80;99.90;;;;;;5076397;28;20293;-64
2021/08/14 08:56:36;;;;;;;13.38;11.98;;;27.80;99.90;;;;;;5076477;28;20175;-64
2021/08/14 08:59:01;;;;;;;14.05;12.65;;;27.80;99.90;;;;;;5076830;28;20201;-62
2021/08/14 09:01:27;;;;;;;17.10;15.00;;;27.80;99.90;;;;;;5075940;28;20187;-62
2021/08/14 09:03:52;;;;;;;15.35;12.68;;;27.90;99.90;;;;;;5076409;28;20281;-62
2021/08/14 09:06:38;;;;;;;14.77;13.25;;;27.90;99.90;;;;;;5076760;28;20167;-64
2021/08/14 09:09:08;;;;;;;14.45;12.93;;;27.60;99.90;;;;;;5075920;28;20190;-63
2021/08/14 09:11:34;;;;;;;13.50;12.25;;;27.40;99.90;;;;;;5075983;28;20189;-64
2021/08/14 09:14:05;;;;;;;14.13;12.75;;;27.30;99.90;;;;;;5087270;28;20214;-64
2021/08/14 09:16:31;;;;;;;15.88;14.25;;;27.40;99.90;;;;;;5096573;28;20174;-62
2021/08/14 09:18:58;;;;;;;16.00;14.50;;;27.40;99.90;;;;;;5096164;28;20545;-64
2021/08/14 09:21:40;;;;;;;15.00;13.60;;;27.40;99.90;;;;;;5095916;28;20638;-64
2021/08/14 09:24:08;;;;;;;14.45;13.05;;;27.40;99.90;;;;;;5095872;28;20232;-63
2021/08/14 09:26:56;;;;;;;15.23;13.13;;;27.50;99.90;;;;;;5095986;28;20257;-63
2021/08/14 09:29:32;;;;;;;13.93;12.27;;;27.80;99.90;;;;;;5096045;28;20174;-64
2021/08/14 09:32:00;;;;;;;14.05;12.40;;;27.80;99.90;;;;;;5095942;28;20170;-64
2021/08/14 09:34:27;;;;;;;13.43;11.85;;;27.60;99.90;;;;;;5095104;28;20506;-62
2021/08/14 09:37:03;;;;;;;15.07;11.63;;;27.70;99.90;;;;;;5095822;28;20242;-64
2021/08/14 09:39:30;;;;;;;14.27;12.88;;;27.70;99.90;;;;;;5095634;28;20181;-63
2021/08/14 09:42:09;;;;;;;12.85;11.52;;;27.70;99.90;;;;;;5094343;28;20339;-64
2021/08/14 09:44:36;;;;;;;14.73;12.50;;;27.70;99.90;;;;;;5095826;28;20193;-63
2021/08/14 09:47:09;;;;;;;15.27;13.60;;;27.90;99.90;;;;;;5095948;28;20184;-64
2021/08/14 09:49:55;;;;;;;12.93;11.63;;;27.90;99.90;;;;;;5095857;28;20162;-64
2021/08/14 09:52:23;;;;;;;12.68;11.35;;;28.10;99.90;;;;;;5089691;28;20631;-63
2021/08/14 09:54:49;;;;;;;12.15;11.00;;;28.10;99.90;;;;;;5068649;28;20207;-63
2021/08/14 09:57:20;;;;;;;11.38;10.13;;;28.10;99.90;;;;;;5072658;28;20194;-64
2021/08/14 09:59:46;;;;;;;12.15;10.95;;;28.20;99.90;;;;;;5075096;28;20190;-63
2021/08/14 10:02:24;;;;;;;11.85;10.65;;;28.10;99.90;;;;;;5074885;28;20650;-64
2021/08/14 10:04:50;;;;;;;14.02;11.18;;;28.10;99.90;;;;;;5056653;28;20203;-65
2021/08/14 10:07:16;;;;;;;10.65;9.55;;;28.10;99.90;;;;;;5055005;28;20229;-64
2021/08/14 10:09:43;;;;;;;10.52;9.43;;;28.50;99.90;;;;;;5054626;28;20551;-63
2021/08/14 10:12:14;;;;;;;15.50;11.68;;;28.90;99.90;;;;;;5054789;28;20275;-64
2021/08/14 10:14:42;;;;;;;10.93;9.73;;;29.00;99.90;;;;;;5054783;28;20286;-64
2021/08/14 10:17:08;;;;;;;9.65;8.75;;;29.20;99.90;;;;;;5073843;28;20198;-63
2021/08/14 10:19:34;;;;;;;10.20;9.20;;;29.20;99.90;;;;;;5094906;28;20564;-64
2021/08/14 10:22:01;;;;;;;11.60;9.88;;;29.30;99.90;;;;;;5094511;28;20278;-62
2021/08/14 10:24:34;;;;;;;9.82;8.70;;;29.30;99.90;;;;;;5095175;28;20595;-63
2021/08/14 10:27:11;;;;;;;9.50;8.50;;;29.50;99.90;;;;;;5094728;28;20178;-63
2021/08/14 10:29:58;;;;;;;9.77;8.55;;;29.90;99.90;;;;;;5071474;28;20167;-62
2021/08/14 10:32:30;;;;;;;9.68;8.70;;;30.10;99.90;;;;;;5054592;28;20316;-63
2021/08/14 10:35:14;;;;;;;9.88;8.32;;;30.00;99.90;;;;;;5059123;28;20601;-62
2021/08/14 10:37:47;;;;;;;11.15;8.95;;;30.10;99.90;;;;;;5072504;28;20204;-63
2021/08/14 10:40:14;;;;;;;8.80;7.95;;;29.80;99.90;;;;;;5051974;28;20230;-64
2021/08/14 10:42:54;;;;;;;12.93;7.53;;;29.60;99.90;;;;;;5051715;28;20203;-63
2021/08/14 10:45:22;;;;;;;8.38;7.50;;;30.20;99.90;;;;;;5053557;28;20802;-62
2021/08/14 10:47:50;;;;;;;8.93;8.02;;;30.50;99.90;;;;;;5054373;28;20179;-63
2021/08/14 10:50:31;;;;;;;9.18;8.30;;;30.60;99.90;;;;;;5054480;28;20210;-62
2021/08/14 10:53:11;;;;;;;9.65;8.40;;;30.80;99.90;;;;;;5072800;28;20198;-62
2021/08/14 10:55:42;;;;;;;10.73;9.63;;;31.00;99.90;;;;;;5074335;28;20269;-63
2021/08/14 10:58:36;;;;;;;10.07;9.07;;;30.70;99.90;;;;;;5074077;28;20590;-62
2021/08/14 11:01:02;;;;;;;13.48;8.75;;;30.30;99.90;;;;;;5068452;28;20272;-63
2021/08/14 11:03:36;;;;;;;12.18;10.05;;;30.20;99.90;;;;;;5064514;28;20227;-63
2021/08/14 11:06:30;;;;;;;10.88;9.80;;;30.20;99.90;;;;;;5053725;28;20155;-64
2021/08/14 11:09:17;;;;;;;11.90;8.82;;;30.50;99.90;;;;;;5054034;28;20187;-63
2021/08/14 11:11:55;;;;;;;8.57;7.78;;;30.60;99.90;;;;;;5053631;28;20175;-63
2021/08/14 11:14:44;;;;;;;9.55;8.65;;;30.80;99.90;;;;;;5053420;28;20206;-64
2021/08/14 11:17:11;;;;;;;10.88;8.95;;;31.00;99.90;;;;;;5053223;28;20631;-63
2021/08/14 11:19:48;;;;;;;8.85;7.40;;;31.10;99.90;;;;;;5053887;28;20195;-64
2021/08/14 11:22:24;;;;;;;8.18;7.47;;;31.30;99.90;;;;;;5053485;28;20225;-64
2021/08/14 11:24:51;;;;;;;7.93;7.20;;;31.80;99.90;;;;;;5053531;28;20581;-64
2021/08/14 11:27:17;;;;;;;8.95;7.97;;;32.20;99.90;;;;;;5053578;28;20167;-64
2021/08/14 11:29:43;;;;;;;7.80;7.03;;;32.60;99.90;;;;;;5053631;28;20175;-63
2021/08/14 11:32:10;;;;;;;9.70;7.72;;;32.70;99.90;;;;;;5053344;28;20652;-64
2021/08/14 11:34:35;;;;;;;10.35;7.70;;;32.70;99.90;;;;;;5071467;28;20210;-63
2021/08/14 11:37:01;;;;;;;6.78;6.10;;;32.50;99.90;;;;;;5073732;28;20167;-63
2021/08/14 11:39:32;;;;;;;8.57;7.78;;;32.50;99.90;;;;;;5073598;28;20682;-63
2021/08/14 11:41:58;;;;;;;8.70;7.22;;;32.70;99.90;;;;;;5072922;28;20684;-63
2021/08/14 11:44:25;;;;;;;11.38;7.22;;;32.90;99.90;;;;;;5072719;28;20206;-64
2021/08/14 11:47:03;;;;;;;8.23;7.38;;;32.90;99.90;;;;;;5073443;28;20170;-63
2021/08/14 11:49:29;;;;;;;9.68;7.28;;;33.00;99.90;;;;;;5073018;28;20556;-64
2021/08/14 11:52:04;;;;;;;8.93;8.02;;;33.30;99.90;;;;;;5073202;28;20183;-63
2021/08/14 11:54:32;;;;;;;8.98;7.13;;;33.40;99.90;;;;;;5073539;28;20190;-63
2021/08/14 11:57:12;;;;;;;10.60;7.95;;;33.00;99.90;;;;;;5073315;28;20186;-62
2021/08/14 11:59:38;;;;;;;8.30;7.40;;;32.70;99.90;;;;;;5077105;28;20675;-62
2021/08/14 12:02:04;;;;;;;7.25;6.55;;;32.60;99.90;;;;;;5076984;28;20281;-64
2021/08/14 12:04:30;;;;;;;8.73;7.88;;;32.50;99.90;;;;;;5077336;28;20273;-63
2021/08/14 12:06:57;;;;;;;9.68;6.88;;;32.60;99.90;;;;;;5077216;28;20530;-64
2021/08/14 12:09:24;;;;;;;10.15;7.15;;;32.70;99.90;;;;;;5077025;28;20221;-63
2021/08/14 12:11:54;;;;;;;7.32;6.57;;;32.70;99.90;;;;;;5067087;28;20647;-64
2021/08/14 12:14:22;;;;;;;11.05;6.78;;;32.80;99.90;;;;;;5057290;28;20202;-64
2021/08/14 12:16:57;;;;;;;6.88;6.28;;;32.90;99.90;;;;;;5057247;28;20190;-63
2021/08/14 12:19:23;;;;;;;7.25;6.00;;;33.10;99.90;;;;;;5057550;28;20183;-63
2021/08/14 12:22:04;;;;;;;7.40;6.18;;;33.00;99.90;;;;;;5056878;28;20718;-62
2021/08/14 12:24:29;;;;;;;8.18;6.72;;;32.80;99.90;;;;;;5058564;28;20195;-63
2021/08/14 12:26:55;;;;;;;6.78;6.07;;;33.10;99.90;;;;;;5072891;28;20186;-63
2021/08/14 12:29:23;;;;;;;6.72;6.03;;;33.20;99.90;;;;;;5076623;28;20158;-63
2021/08/14 12:31:56;;;;;;;7.80;6.35;;;33.30;99.90;;;;;;5076810;28;20242;-63